Terminal Aerodrome Forecast
Issued by NWS

Home | Current Version | Previous Version | Text Only | Print | Product List | Glossary On
Versions: 1 2 3 4 5 6 7 8 9 10 11 12 13 14 15 16 17 18 19 20 21 22
000
FTUS43 KDVN 231552 AAA
TAFCID
TAF AMD
KCID 231552Z 2316/2412 13008KT P6SM SCT120
     FM231800 17010KT P6SM SCT120 BKN250
     FM240000 15007KT P6SM BKN250 PROB30 2403/2406 3SM -TSRA
      BKN030CB
     FM240900 19008KT 5SM BR BKN100=

USA.gov is the U.S. government's official web portal to all federal, state and local government web resources and services.